createdAt,value
2018-11-02T00:02:44.055Z,77.50
2018-11-02T00:12:47.311Z,78.10
2018-11-02T00:22:50.642Z,78.00
2018-11-02T00:32:53.865Z,78.10
2018-11-02T00:42:57.291Z,77.80
2018-11-02T00:53:00.533Z,78.00
2018-11-02T01:03:04.242Z,77.80
2018-11-02T01:13:07.485Z,77.80
2018-11-02T01:23:10.714Z,76.80
2018-11-02T01:33:13.946Z,77.50
2018-11-02T01:43:17.162Z,77.70
2018-11-02T01:53:20.424Z,76.90
2018-11-02T02:03:23.654Z,77.50
2018-11-02T02:13:26.937Z,77.70
2018-11-02T02:23:30.110Z,77.50
2018-11-02T02:33:33.338Z,76.80
2018-11-02T02:43:36.623Z,77.60
2018-11-02T02:53:39.875Z,77.40
2018-11-02T03:03:43.396Z,76.60
2018-11-02T03:13:46.622Z,76.80
2018-11-02T03:23:49.839Z,76.70
2018-11-02T03:33:53.326Z,77.10
2018-11-02T03:43:56.588Z,77.10
2018-11-02T03:53:59.830Z,76.80
2018-11-02T04:04:03.110Z,76.10
2018-11-02T04:14:06.344Z,76.80
2018-11-02T04:24:09.581Z,77.40
2018-11-02T04:34:13.549Z,76.50
2018-11-02T04:44:16.770Z,76.10
2018-11-02T04:54:20.050Z,76.20
2018-11-02T05:04:23.290Z,76.10
2018-11-02T05:14:26.552Z,76.20
2018-11-02T05:24:29.791Z,76.40
2018-11-02T05:34:33.023Z,75.50
2018-11-02T05:44:37.021Z,76.10
2018-11-02T05:54:40.623Z,76.10
2018-11-02T06:04:43.902Z,76.00
2018-11-02T06:14:47.187Z,75.50
2018-11-02T06:24:50.446Z,75.70
2018-11-02T06:34:53.722Z,75.60
2018-11-02T06:44:57.005Z,75.90
2018-11-02T06:55:00.246Z,76.50
2018-11-02T07:05:03.517Z,75.40
2018-11-02T07:15:06.896Z,75.40
2018-11-02T07:25:10.183Z,75.80
2018-11-02T07:35:13.398Z,75.70
2018-11-02T07:45:16.631Z,76.50
2018-11-02T07:55:19.985Z,76.70
2018-11-02T08:05:23.213Z,76.70
2018-11-02T08:15:26.469Z,76.10
2018-11-02T08:25:29.832Z,76.80
2018-11-02T08:35:33.172Z,76.20
2018-11-02T08:45:36.402Z,75.70
2018-11-02T08:55:39.745Z,75.70
2018-11-02T09:05:42.953Z,75.20
2018-11-02T09:15:46.214Z,75.90
2018-11-02T09:25:49.414Z,75.50
2018-11-02T09:35:52.630Z,73.80
2018-11-02T09:45:55.866Z,73.50
2018-11-02T09:55:59.123Z,72.50
2018-11-02T10:06:02.354Z,72.40
2018-11-02T10:16:05.908Z,71.80
2018-11-02T10:26:09.161Z,71.40
2018-11-02T10:36:12.414Z,70.90
2018-11-02T10:46:15.631Z,70.60
2018-11-02T10:56:18.902Z,69.80
2018-11-02T11:06:23.843Z,67.00
2018-11-02T11:16:27.070Z,67.50
2018-11-02T11:26:30.318Z,66.10
2018-11-02T11:36:33.551Z,62.50
2018-11-02T11:46:37.117Z,61.50
2018-11-02T11:56:40.402Z,60.00
2018-11-02T12:06:43.698Z,57.80
2018-11-02T12:16:46.941Z,57.70
2018-11-02T12:26:50.223Z,57.50
2018-11-02T12:36:53.510Z,57.60
2018-11-02T12:46:56.746Z,57.20
2018-11-02T12:57:00.071Z,56.40
2018-11-02T13:07:03.340Z,55.70
2018-11-02T13:17:06.576Z,54.70
2018-11-02T13:27:09.808Z,54.20
2018-11-02T13:37:13.122Z,54.30
2018-11-02T13:47:16.267Z,54.20
2018-11-02T13:57:19.521Z,54.50
2018-11-02T14:07:22.757Z,54.70
2018-11-02T14:17:26.013Z,53.80
2018-11-02T14:27:29.395Z,53.60
2018-11-02T14:37:32.852Z,53.60
2018-11-02T14:47:36.089Z,54.10
2018-11-02T14:57:39.745Z,53.80
2018-11-02T15:07:43.489Z,54.70
2018-11-02T15:17:46.713Z,55.10
2018-11-02T15:27:49.977Z,55.80
2018-11-02T15:37:53.280Z,56.50
2018-11-02T15:47:56.536Z,57.30
2018-11-02T15:57:59.765Z,57.60
2018-11-02T16:08:03.586Z,58.30
2018-11-02T16:18:06.864Z,58.70
2018-11-02T16:28:10.099Z,59.60
2018-11-02T16:38:13.367Z,60.40
2018-11-02T16:48:16.738Z,60.90
2018-11-02T16:58:20.109Z,61.90
2018-11-02T17:08:23.982Z,62.50
2018-11-02T17:18:29.668Z,63.00
2018-11-02T17:28:32.903Z,63.70
2018-11-02T17:38:36.238Z,64.00
2018-11-02T17:48:40.007Z,64.40
2018-11-02T17:58:43.250Z,64.20
2018-11-02T18:08:46.486Z,64.70
2018-11-02T18:18:49.703Z,65.30
2018-11-02T18:28:52.985Z,65.50
2018-11-02T18:38:56.310Z,66.00
2018-11-02T18:48:59.656Z,66.30
2018-11-02T18:59:02.895Z,66.70
2018-11-02T19:09:08.850Z,67.40
2018-11-02T19:19:12.126Z,67.60
2018-11-02T19:29:15.465Z,67.60
2018-11-02T19:39:18.810Z,67.80
2018-11-02T19:49:22.158Z,68.10
2018-11-02T19:59:25.498Z,68.20
2018-11-02T20:09:29.835Z,68.20
2018-11-02T20:19:33.020Z,68.20
2018-11-02T20:29:36.246Z,69.20
2018-11-02T20:39:39.639Z,70.10
2018-11-02T20:49:42.843Z,70.10
2018-11-02T20:59:46.809Z,70.10
2018-11-02T21:09:50.145Z,70.00
2018-11-02T21:19:53.504Z,70.50
2018-11-02T21:29:57.005Z,71.40
2018-11-02T21:40:00.249Z,73.20
2018-11-02T21:50:03.625Z,74.10
2018-11-02T22:00:10.215Z,75.00
2018-11-02T22:10:13.900Z,77.20
2018-11-02T22:20:17.338Z,76.10
2018-11-02T22:30:20.593Z,76.40
2018-11-02T22:40:23.852Z,75.60
2018-11-02T22:50:27.054Z,75.60
2018-11-02T23:00:30.305Z,75.60
2018-11-02T23:10:33.525Z,75.60
2018-11-02T23:20:36.750Z,77.30
2018-11-02T23:30:39.975Z,76.30
2018-11-02T23:40:43.394Z,75.30
2018-11-02T23:50:47.642Z,75.00
